EPWA/WAW METAR and TAF weather

Enter ICAO airport designator
Station Type Date Time Source
EPWA METAR 2020/06/06 02:30 UTC NOAA

EPWA 060230Z 21005KT CAVOK 12/11 Q1002 NOSIG


Station Type Date Time Source
EPWA Decoded METAR 2020/06/06 02:30 UTC NOAA

Warszawa-Okecie, Poland (EPWA) 52-10N 020-58E 107M
Jun 05, 2020 - 10:30 PM EDT / 2020.06.06 0230 UTC
Wind: from the SSW (210 degrees) at 6 MPH (5 KT):0
Visibility: greater than 7 mile(s):0
Temperature: 53 F (12 C)
Dew Point: 51 F (11 C)
Relative Humidity: 93%
Pressure (altimeter): 29.59 in. Hg (1002 hPa)
ob: EPWA 060230Z 21005KT CAVOK 12/11 Q1002 NOSIG
cycle: 2

Station Type Date Time Source
EPWA TAF 2020/06/06 03:33 UTC NOAA

TAF EPWA 060230Z 0603/0703 20007KT CAVOK
TEMPO 0606/0615 21015G25KT PROB40
TEMPO 0612/0618 SCT040CB

Example: see airport list